sensor_id;sensor_type;location;lat;lon;timestamp;P1;durP1;ratioP1;P2;durP2;ratioP2
24445;SDS011;13347;50.984;5.822;2022-12-07T00:01:50;55.45;;;51.53;;
24445;SDS011;13347;50.984;5.822;2022-12-07T00:04:17;42.47;;;39.28;;
24445;SDS011;13347;50.984;5.822;2022-12-07T00:06:45;34.20;;;31.50;;
24445;SDS011;13347;50.984;5.822;2022-12-07T00:09:16;26.67;;;23.85;;
24445;SDS011;13347;50.984;5.822;2022-12-07T00:11:47;22.65;;;20.42;;
24445;SDS011;13347;50.984;5.822;2022-12-07T00:14:16;31.65;;;28.45;;
24445;SDS011;13347;50.984;5.822;2022-12-07T00:16:44;29.98;;;27.35;;
24445;SDS011;13347;50.984;5.822;2022-12-07T00:19:12;35.50;;;32.65;;
24445;SDS011;13347;50.984;5.822;2022-12-07T00:21:40;38.33;;;35.15;;
24445;SDS011;13347;50.984;5.822;2022-12-07T00:24:07;40.88;;;37.55;;
24445;SDS011;13347;50.984;5.822;2022-12-07T00:26:36;51.55;;;47.85;;
24445;SDS011;13347;50.984;5.822;2022-12-07T00:29:06;367.40;;;340.10;;
24445;SDS011;13347;50.984;5.822;2022-12-07T00:31:38;136.48;;;128.88;;
24445;SDS011;13347;50.984;5.822;2022-12-07T00:34:05;121.57;;;114.82;;
24445;SDS011;13347;50.984;5.822;2022-12-07T00:36:33;154.20;;;145.95;;
24445;SDS011;13347;50.984;5.822;2022-12-07T00:39:00;238.77;;;226.63;;
24445;SDS011;13347;50.984;5.822;2022-12-07T00:41:28;280.02;;;266.10;;
24445;SDS011;13347;50.984;5.822;2022-12-07T00:43:56;297.13;;;281.55;;
24445;SDS011;13347;50.984;5.822;2022-12-07T00:46:25;257.75;;;244.77;;
24445;SDS011;13347;50.984;5.822;2022-12-07T00:48:52;312.42;;;296.58;;
24445;SDS011;13347;50.984;5.822;2022-12-07T00:51:20;285.90;;;271.75;;
24445;SDS011;13347;50.984;5.822;2022-12-07T00:53:49;570.08;;;528.28;;
24445;SDS011;13347;50.984;5.822;2022-12-07T00:56:18;500.25;;;465.00;;
24445;SDS011;13347;50.984;5.822;2022-12-07T00:58:49;267.15;;;254.00;;
24445;SDS011;13347;50.984;5.822;2022-12-07T01:01:17;330.58;;;313.17;;
24445;SDS011;13347;50.984;5.822;2022-12-07T01:03:46;412.15;;;386.40;;
24445;SDS011;13347;50.984;5.822;2022-12-07T01:06:14;309.10;;;293.70;;
24445;SDS011;13347;50.984;5.822;2022-12-07T01:08:42;276.25;;;262.35;;
24445;SDS011;13347;50.984;5.822;2022-12-07T01:11:11;308.17;;;292.45;;
24445;SDS011;13347;50.984;5.822;2022-12-07T01:13:40;336.85;;;318.67;;
24445;SDS011;13347;50.984;5.822;2022-12-07T01:16:09;456.88;;;429.48;;
24445;SDS011;13347;50.984;5.822;2022-12-07T01:18:38;346.35;;;325.35;;
24445;SDS011;13347;50.984;5.822;2022-12-07T01:21:13;298.63;;;282.27;;
24445;SDS011;13347;50.984;5.822;2022-12-07T01:23:41;460.60;;;427.90;;
24445;SDS011;13347;50.984;5.822;2022-12-07T01:26:10;154.30;;;144.25;;
24445;SDS011;13347;50.984;5.822;2022-12-07T01:28:39;169.60;;;160.18;;
24445;SDS011;13347;50.984;5.822;2022-12-07T01:31:07;119.55;;;111.43;;
24445;SDS011;13347;50.984;5.822;2022-12-07T01:33:36;113.93;;;107.10;;
24445;SDS011;13347;50.984;5.822;2022-12-07T01:36:07;139.82;;;131.75;;
24445;SDS011;13347;50.984;5.822;2022-12-07T01:41:05;258.10;;;243.00;;
24445;SDS011;13347;50.984;5.822;2022-12-07T01:43:33;229.73;;;217.18;;
24445;SDS011;13347;50.984;5.822;2022-12-07T01:46:01;237.85;;;225.40;;
24445;SDS011;13347;50.984;5.822;2022-12-07T01:48:30;294.33;;;278.38;;
24445;SDS011;13347;50.984;5.822;2022-12-07T01:51:02;259.52;;;246.02;;
24445;SDS011;13347;50.984;5.822;2022-12-07T01:56:04;275.08;;;261.10;;
24445;SDS011;13347;50.984;5.822;2022-12-07T01:58:33;258.60;;;245.25;;
24445;SDS011;13347;50.984;5.822;2022-12-07T02:01:01;292.42;;;276.35;;
24445;SDS011;13347;50.984;5.822;2022-12-07T02:03:30;260.48;;;247.05;;
24445;SDS011;13347;50.984;5.822;2022-12-07T02:06:02;334.70;;;315.83;;
24445;SDS011;13347;50.984;5.822;2022-12-07T02:08:30;335.00;;;317.67;;
24445;SDS011;13347;50.984;5.822;2022-12-07T02:11:00;333.98;;;316.75;;
24445;SDS011;13347;50.984;5.822;2022-12-07T02:13:28;308.80;;;292.52;;
24445;SDS011;13347;50.984;5.822;2022-12-07T02:18:55;425.95;;;401.33;;
24445;SDS011;13347;50.984;5.822;2022-12-07T02:21:34;298.45;;;282.70;;
24445;SDS011;13347;50.984;5.822;2022-12-07T02:24:13;426.30;;;401.17;;
24445;SDS011;13347;50.984;5.822;2022-12-07T02:26:54;452.55;;;412.25;;
24445;SDS011;13347;50.984;5.822;2022-12-07T02:29:52;411.27;;;386.83;;
24445;SDS011;13347;50.984;5.822;2022-12-07T02:32:24;422.25;;;396.83;;
24445;SDS011;13347;50.984;5.822;2022-12-07T02:34:58;297.52;;;281.60;;
24445;SDS011;13347;50.984;5.822;2022-12-07T02:37:34;634.00;;;586.70;;
24445;SDS011;13347;50.984;5.822;2022-12-07T02:40:06;349.08;;;328.70;;
24445;SDS011;13347;50.984;5.822;2022-12-07T02:42:38;375.08;;;354.92;;
24445;SDS011;13347;50.984;5.822;2022-12-07T02:45:12;595.03;;;552.30;;
24445;SDS011;13347;50.984;5.822;2022-12-07T02:47:42;308.80;;;292.30;;
24445;SDS011;13347;50.984;5.822;2022-12-07T02:50:11;417.27;;;389.33;;
24445;SDS011;13347;50.984;5.822;2022-12-07T02:52:38;360.23;;;341.23;;
24445;SDS011;13347;50.984;5.822;2022-12-07T02:55:05;342.48;;;323.90;;
24445;SDS011;13347;50.984;5.822;2022-12-07T02:57:40;297.80;;;281.73;;
24445;SDS011;13347;50.984;5.822;2022-12-07T03:00:17;277.20;;;263.10;;
24445;SDS011;13347;50.984;5.822;2022-12-07T03:02:48;308.45;;;292.67;;
24445;SDS011;13347;50.984;5.822;2022-12-07T03:05:26;288.90;;;273.58;;
24445;SDS011;13347;50.984;5.822;2022-12-07T03:08:04;429.83;;;403.65;;
24445;SDS011;13347;50.984;5.822;2022-12-07T03:10:40;308.42;;;292.80;;
24445;SDS011;13347;50.984;5.822;2022-12-07T03:13:16;535.60;;;491.58;;
24445;SDS011;13347;50.984;5.822;2022-12-07T03:15:53;357.48;;;335.20;;
24445;SDS011;13347;50.984;5.822;2022-12-07T03:18:25;322.70;;;305.42;;
24445;SDS011;13347;50.984;5.822;2022-12-07T03:20:57;288.63;;;273.40;;
24445;SDS011;13347;50.984;5.822;2022-12-07T03:23:29;316.65;;;300.60;;
24445;SDS011;13347;50.984;5.822;2022-12-07T03:25:59;454.45;;;424.63;;
24445;SDS011;13347;50.984;5.822;2022-12-07T03:28:29;512.90;;;480.40;;
24445;SDS011;13347;50.984;5.822;2022-12-07T03:31:03;292.40;;;277.33;;
24445;SDS011;13347;50.984;5.822;2022-12-07T03:33:38;359.88;;;340.45;;
24445;SDS011;13347;50.984;5.822;2022-12-07T03:36:11;681.95;;;629.03;;
24445;SDS011;13347;50.984;5.822;2022-12-07T03:38:47;358.83;;;339.17;;
24445;SDS011;13347;50.984;5.822;2022-12-07T03:41:21;350.65;;;331.95;;
24445;SDS011;13347;50.984;5.822;2022-12-07T03:43:50;441.10;;;413.20;;
24445;SDS011;13347;50.984;5.822;2022-12-07T03:46:24;288.90;;;273.60;;
24445;SDS011;13347;50.984;5.822;2022-12-07T03:49:04;363.50;;;343.02;;
24445;SDS011;13347;50.984;5.822;2022-12-07T03:51:37;230.05;;;217.68;;
24445;SDS011;13347;50.984;5.822;2022-12-07T03:56:39;445.20;;;416.00;;
24445;SDS011;13347;50.984;5.822;2022-12-07T03:59:09;263.63;;;249.63;;
24445;SDS011;13347;50.984;5.822;2022-12-07T04:01:39;372.75;;;351.05;;
24445;SDS011;13347;50.984;5.822;2022-12-07T04:04:08;334.05;;;315.70;;
24445;SDS011;13347;50.984;5.822;2022-12-07T04:06:36;500.48;;;465.73;;
24445;SDS011;13347;50.984;5.822;2022-12-07T04:09:03;253.27;;;240.02;;
24445;SDS011;13347;50.984;5.822;2022-12-07T04:11:30;285.75;;;270.38;;
24445;SDS011;13347;50.984;5.822;2022-12-07T04:13:57;353.92;;;333.60;;
24445;SDS011;13347;50.984;5.822;2022-12-07T04:16:43;377.50;;;356.30;;
24445;SDS011;13347;50.984;5.822;2022-12-07T04:19:10;315.33;;;299.33;;
24445;SDS011;13347;50.984;5.822;2022-12-07T04:21:37;274.67;;;260.05;;
24445;SDS011;13347;50.984;5.822;2022-12-07T04:24:05;295.42;;;280.33;;
24445;SDS011;13347;50.984;5.822;2022-12-07T04:26:32;294.48;;;279.10;;
24445;SDS011;13347;50.984;5.822;2022-12-07T04:29:00;570.60;;;529.65;;
24445;SDS011;13347;50.984;5.822;2022-12-07T04:31:27;407.52;;;378.15;;
24445;SDS011;13347;50.984;5.822;2022-12-07T04:33:55;355.77;;;334.40;;
24445;SDS011;13347;50.984;5.822;2022-12-07T04:36:23;297.85;;;282.35;;
24445;SDS011;13347;50.984;5.822;2022-12-07T04:38:52;296.00;;;280.80;;
24445;SDS011;13347;50.984;5.822;2022-12-07T04:41:20;347.38;;;328.58;;
24445;SDS011;13347;50.984;5.822;2022-12-07T04:43:52;328.60;;;311.80;;
24445;SDS011;13347;50.984;5.822;2022-12-07T04:46:20;356.10;;;336.63;;
24445;SDS011;13347;50.984;5.822;2022-12-07T04:48:47;465.40;;;438.17;;
24445;SDS011;13347;50.984;5.822;2022-12-07T04:51:18;522.33;;;490.35;;
24445;SDS011;13347;50.984;5.822;2022-12-07T04:53:47;385.17;;;364.13;;
24445;SDS011;13347;50.984;5.822;2022-12-07T04:56:14;394.13;;;371.55;;
24445;SDS011;13347;50.984;5.822;2022-12-07T04:58:42;349.92;;;331.80;;
24445;SDS011;13347;50.984;5.822;2022-12-07T05:01:10;304.27;;;288.85;;
24445;SDS011;13347;50.984;5.822;2022-12-07T05:03:38;330.50;;;313.35;;
24445;SDS011;13347;50.984;5.822;2022-12-07T05:06:06;301.50;;;285.83;;
24445;SDS011;13347;50.984;5.822;2022-12-07T05:08:35;389.50;;;367.73;;
24445;SDS011;13347;50.984;5.822;2022-12-07T05:11:03;414.58;;;389.92;;
24445;SDS011;13347;50.984;5.822;2022-12-07T05:13:31;299.27;;;283.77;;
24445;SDS011;13347;50.984;5.822;2022-12-07T05:15:58;284.08;;;269.27;;
24445;SDS011;13347;50.984;5.822;2022-12-07T05:18:25;313.50;;;297.58;;
24445;SDS011;13347;50.984;5.822;2022-12-07T05:20:52;299.63;;;284.20;;
24445;SDS011;13347;50.984;5.822;2022-12-07T05:23:20;289.50;;;274.60;;
24445;SDS011;13347;50.984;5.822;2022-12-07T05:25:48;526.38;;;492.48;;
24445;SDS011;13347;50.984;5.822;2022-12-07T05:28:16;456.75;;;424.25;;
24445;SDS011;13347;50.984;5.822;2022-12-07T05:30:43;443.30;;;416.08;;
24445;SDS011;13347;50.984;5.822;2022-12-07T05:33:10;298.35;;;283.13;;
24445;SDS011;13347;50.984;5.822;2022-12-07T05:35:37;261.35;;;247.52;;
24445;SDS011;13347;50.984;5.822;2022-12-07T05:38:05;275.67;;;261.33;;
24445;SDS011;13347;50.984;5.822;2022-12-07T05:40:32;325.00;;;307.13;;
24445;SDS011;13347;50.984;5.822;2022-12-07T05:43:01;313.23;;;296.55;;
24445;SDS011;13347;50.984;5.822;2022-12-07T05:45:28;343.33;;;324.95;;
24445;SDS011;13347;50.984;5.822;2022-12-07T05:47:55;297.80;;;282.45;;
24445;SDS011;13347;50.984;5.822;2022-12-07T05:50:22;305.08;;;289.10;;
24445;SDS011;13347;50.984;5.822;2022-12-07T05:52:49;425.85;;;400.67;;
24445;SDS011;13347;50.984;5.822;2022-12-07T05:55:17;610.25;;;568.17;;
24445;SDS011;13347;50.984;5.822;2022-12-07T05:57:44;375.50;;;354.35;;
24445;SDS011;13347;50.984;5.822;2022-12-07T06:00:32;296.38;;;281.02;;
24445;SDS011;13347;50.984;5.822;2022-12-07T06:02:58;350.08;;;330.98;;
24445;SDS011;13347;50.984;5.822;2022-12-07T06:05:26;293.48;;;278.13;;
24445;SDS011;13347;50.984;5.822;2022-12-07T06:07:53;278.15;;;263.33;;
24445;SDS011;13347;50.984;5.822;2022-12-07T06:10:20;300.05;;;284.33;;
24445;SDS011;13347;50.984;5.822;2022-12-07T06:12:47;269.25;;;255.20;;
24445;SDS011;13347;50.984;5.822;2022-12-07T06:15:13;366.65;;;346.83;;
24445;SDS011;13347;50.984;5.822;2022-12-07T06:17:42;306.05;;;290.15;;
24445;SDS011;13347;50.984;5.822;2022-12-07T06:20:09;278.35;;;263.67;;
24445;SDS011;13347;50.984;5.822;2022-12-07T06:22:36;276.33;;;261.77;;
24445;SDS011;13347;50.984;5.822;2022-12-07T06:25:04;292.90;;;277.30;;
24445;SDS011;13347;50.984;5.822;2022-12-07T06:27:32;338.00;;;320.25;;
24445;SDS011;13347;50.984;5.822;2022-12-07T06:30:00;298.50;;;282.52;;
24445;SDS011;13347;50.984;5.822;2022-12-07T06:32:31;315.00;;;298.23;;
24445;SDS011;13347;50.984;5.822;2022-12-07T06:35:00;366.90;;;347.02;;
24445;SDS011;13347;50.984;5.822;2022-12-07T06:37:27;289.52;;;273.92;;
24445;SDS011;13347;50.984;5.822;2022-12-07T06:39:54;297.85;;;281.70;;
24445;SDS011;13347;50.984;5.822;2022-12-07T06:42:22;318.05;;;300.67;;
24445;SDS011;13347;50.984;5.822;2022-12-07T06:44:49;292.25;;;274.00;;
24445;SDS011;13347;50.984;5.822;2022-12-07T06:47:16;300.17;;;284.55;;
24445;SDS011;13347;50.984;5.822;2022-12-07T06:49:43;319.58;;;302.20;;
24445;SDS011;13347;50.984;5.822;2022-12-07T06:52:12;321.05;;;303.58;;
24445;SDS011;13347;50.984;5.822;2022-12-07T06:54:39;424.63;;;396.67;;
24445;SDS011;13347;50.984;5.822;2022-12-07T06:57:06;375.02;;;354.08;;
24445;SDS011;13347;50.984;5.822;2022-12-07T06:59:33;340.30;;;320.58;;
24445;SDS011;13347;50.984;5.822;2022-12-07T07:02:00;321.95;;;304.52;;
24445;SDS011;13347;50.984;5.822;2022-12-07T07:04:28;319.58;;;302.67;;
24445;SDS011;13347;50.984;5.822;2022-12-07T07:06:55;412.92;;;389.52;;
24445;SDS011;13347;50.984;5.822;2022-12-07T07:09:23;315.85;;;298.77;;
24445;SDS011;13347;50.984;5.822;2022-12-07T07:11:51;321.75;;;303.92;;
24445;SDS011;13347;50.984;5.822;2022-12-07T07:14:18;319.85;;;302.38;;
24445;SDS011;13347;50.984;5.822;2022-12-07T07:16:46;335.00;;;317.15;;
24445;SDS011;13347;50.984;5.822;2022-12-07T07:19:13;313.83;;;296.50;;
24445;SDS011;13347;50.984;5.822;2022-12-07T07:21:40;335.52;;;317.60;;
24445;SDS011;13347;50.984;5.822;2022-12-07T07:24:07;359.08;;;338.95;;
24445;SDS011;13347;50.984;5.822;2022-12-07T07:26:36;303.05;;;287.15;;
24445;SDS011;13347;50.984;5.822;2022-12-07T07:29:03;301.02;;;284.90;;
24445;SDS011;13347;50.984;5.822;2022-12-07T07:31:30;285.35;;;269.95;;
24445;SDS011;13347;50.984;5.822;2022-12-07T07:34:00;305.02;;;288.40;;
24445;SDS011;13347;50.984;5.822;2022-12-07T07:36:27;340.08;;;321.35;;
24445;SDS011;13347;50.984;5.822;2022-12-07T07:38:54;310.50;;;293.95;;
24445;SDS011;13347;50.984;5.822;2022-12-07T07:41:22;306.45;;;289.13;;
24445;SDS011;13347;50.984;5.822;2022-12-07T07:43:50;331.83;;;313.55;;
24445;SDS011;13347;50.984;5.822;2022-12-07T07:46:17;372.70;;;351.55;;
24445;SDS011;13347;50.984;5.822;2022-12-07T07:48:44;311.92;;;294.42;;
24445;SDS011;13347;50.984;5.822;2022-12-07T07:51:11;331.73;;;312.85;;
24445;SDS011;13347;50.984;5.822;2022-12-07T07:53:39;350.20;;;330.75;;
24445;SDS011;13347;50.984;5.822;2022-12-07T07:56:06;401.33;;;377.58;;
24445;SDS011;13347;50.984;5.822;2022-12-07T07:58:33;369.48;;;348.20;;
24445;SDS011;13347;50.984;5.822;2022-12-07T08:01:04;297.27;;;280.77;;
24445;SDS011;13347;50.984;5.822;2022-12-07T08:03:32;291.95;;;274.38;;
24445;SDS011;13347;50.984;5.822;2022-12-07T08:06:01;337.25;;;317.35;;
24445;SDS011;13347;50.984;5.822;2022-12-07T08:08:28;281.15;;;264.23;;
24445;SDS011;13347;50.984;5.822;2022-12-07T08:10:55;476.23;;;447.27;;
24445;SDS011;13347;50.984;5.822;2022-12-07T08:13:25;589.38;;;549.25;;
24445;SDS011;13347;50.984;5.822;2022-12-07T08:15:53;411.67;;;387.58;;
24445;SDS011;13347;50.984;5.822;2022-12-07T08:18:21;274.67;;;257.83;;
24445;SDS011;13347;50.984;5.822;2022-12-07T08:20:49;303.42;;;284.95;;
24445;SDS011;13347;50.984;5.822;2022-12-07T08:23:16;192.15;;;179.25;;
24445;SDS011;13347;50.984;5.822;2022-12-07T08:25:43;388.92;;;363.95;;
24445;SDS011;13347;50.984;5.822;2022-12-07T08:28:10;236.95;;;221.88;;
24445;SDS011;13347;50.984;5.822;2022-12-07T08:30:37;363.58;;;340.98;;
24445;SDS011;13347;50.984;5.822;2022-12-07T08:33:04;192.35;;;178.23;;
24445;SDS011;13347;50.984;5.822;2022-12-07T08:35:33;87.65;;;79.10;;
24445;SDS011;13347;50.984;5.822;2022-12-07T08:38:01;102.85;;;94.20;;
24445;SDS011;13347;50.984;5.822;2022-12-07T08:40:28;79.03;;;71.70;;
24445;SDS011;13347;50.984;5.822;2022-12-07T08:42:56;60.03;;;49.28;;
24445;SDS011;13347;50.984;5.822;2022-12-07T08:45:23;122.78;;;112.68;;
24445;SDS011;13347;50.984;5.822;2022-12-07T08:47:51;96.88;;;88.28;;
24445;SDS011;13347;50.984;5.822;2022-12-07T08:50:21;83.80;;;76.68;;
24445;SDS011;13347;50.984;5.822;2022-12-07T08:52:51;43.78;;;39.28;;
24445;SDS011;13347;50.984;5.822;2022-12-07T08:55:21;78.32;;;71.78;;
24445;SDS011;13347;50.984;5.822;2022-12-07T08:57:48;54.28;;;49.05;;
24445;SDS011;13347;50.984;5.822;2022-12-07T09:00:17;77.28;;;69.90;;
24445;SDS011;13347;50.984;5.822;2022-12-07T09:02:44;46.47;;;42.08;;
24445;SDS011;13347;50.984;5.822;2022-12-07T09:05:12;41.53;;;37.35;;
24445;SDS011;13347;50.984;5.822;2022-12-07T09:07:41;107.25;;;99.75;;
24445;SDS011;13347;50.984;5.822;2022-12-07T09:10:11;38.83;;;34.83;;
24445;SDS011;13347;50.984;5.822;2022-12-07T09:12:38;59.70;;;54.58;;
24445;SDS011;13347;50.984;5.822;2022-12-07T09:15:06;51.60;;;46.90;;
24445;SDS011;13347;50.984;5.822;2022-12-07T09:17:33;35.85;;;32.05;;
24445;SDS011;13347;50.984;5.822;2022-12-07T09:20:01;76.50;;;70.43;;
24445;SDS011;13347;50.984;5.822;2022-12-07T09:22:29;124.72;;;115.82;;
24445;SDS011;13347;50.984;5.822;2022-12-07T09:24:56;92.15;;;85.78;;
24445;SDS011;13347;50.984;5.822;2022-12-07T09:27:25;147.55;;;138.73;;
24445;SDS011;13347;50.984;5.822;2022-12-07T09:29:53;45.63;;;41.70;;
24445;SDS011;13347;50.984;5.822;2022-12-07T09:32:20;53.42;;;49.13;;
24445;SDS011;13347;50.984;5.822;2022-12-07T09:34:48;77.45;;;72.03;;
24445;SDS011;13347;50.984;5.822;2022-12-07T09:37:15;33.88;;;30.67;;
24445;SDS011;13347;50.984;5.822;2022-12-07T09:39:42;30.88;;;27.98;;
24445;SDS011;13347;50.984;5.822;2022-12-07T09:42:11;31.65;;;28.42;;
24445;SDS011;13347;50.984;5.822;2022-12-07T09:44:53;43.30;;;39.05;;
24445;SDS011;13347;50.984;5.822;2022-12-07T09:47:20;34.22;;;30.10;;
24445;SDS011;13347;50.984;5.822;2022-12-07T09:49:47;36.55;;;32.75;;
24445;SDS011;13347;50.984;5.822;2022-12-07T09:52:18;45.33;;;41.08;;
24445;SDS011;13347;50.984;5.822;2022-12-07T09:54:48;30.90;;;27.52;;
24445;SDS011;13347;50.984;5.822;2022-12-07T09:57:17;36.28;;;28.13;;
24445;SDS011;13347;50.984;5.822;2022-12-07T09:59:48;55.65;;;51.03;;
24445;SDS011;13347;50.984;5.822;2022-12-07T10:02:34;151.38;;;142.93;;
24445;SDS011;13347;50.984;5.822;2022-12-07T10:05:05;16.90;;;15.30;;
24445;SDS011;13347;50.984;5.822;2022-12-07T10:07:33;65.65;;;61.75;;
24445;SDS011;13347;50.984;5.822;2022-12-07T10:10:02;39.33;;;36.78;;
24445;SDS011;13347;50.984;5.822;2022-12-07T10:12:30;33.47;;;31.23;;
24445;SDS011;13347;50.984;5.822;2022-12-07T10:15:19;16.40;;;14.98;;
24445;SDS011;13347;50.984;5.822;2022-12-07T10:17:47;17.63;;;15.95;;
24445;SDS011;13347;50.984;5.822;2022-12-07T10:20:17;19.92;;;18.30;;
24445;SDS011;13347;50.984;5.822;2022-12-07T10:23:01;27.05;;;24.90;;
24445;SDS011;13347;50.984;5.822;2022-12-07T10:25:31;18.40;;;16.85;;
24445;SDS011;13347;50.984;5.822;2022-12-07T10:28:01;27.30;;;25.40;;
24445;SDS011;13347;50.984;5.822;2022-12-07T10:30:52;40.30;;;37.88;;
24445;SDS011;13347;50.984;5.822;2022-12-07T10:33:27;29.63;;;27.70;;
24445;SDS011;13347;50.984;5.822;2022-12-07T10:36:00;26.27;;;24.52;;
24445;SDS011;13347;50.984;5.822;2022-12-07T10:38:43;36.72;;;34.33;;
24445;SDS011;13347;50.984;5.822;2022-12-07T10:41:12;23.52;;;21.83;;
24445;SDS011;13347;50.984;5.822;2022-12-07T10:43:46;15.15;;;13.80;;
24445;SDS011;13347;50.984;5.822;2022-12-07T10:49:44;26.42;;;24.65;;
24445;SDS011;13347;50.984;5.822;2022-12-07T10:52:39;22.17;;;20.70;;
24445;SDS011;13347;50.984;5.822;2022-12-07T10:55:16;18.35;;;16.63;;
24445;SDS011;13347;50.984;5.822;2022-12-07T10:58:04;18.65;;;17.23;;
24445;SDS011;13347;50.984;5.822;2022-12-07T11:00:51;52.42;;;48.97;;
24445;SDS011;13347;50.984;5.822;2022-12-07T11:06:36;27.45;;;25.70;;
24445;SDS011;13347;50.984;5.822;2022-12-07T11:09:21;17.40;;;16.05;;
24445;SDS011;13347;50.984;5.822;2022-12-07T11:12:22;25.85;;;24.10;;
24445;SDS011;13347;50.984;5.822;2022-12-07T11:14:55;20.45;;;19.05;;
24445;SDS011;13347;50.984;5.822;2022-12-07T11:17:30;24.13;;;22.50;;
24445;SDS011;13347;50.984;5.822;2022-12-07T11:20:05;22.38;;;20.77;;
24445;SDS011;13347;50.984;5.822;2022-12-07T11:22:58;22.13;;;20.80;;
24445;SDS011;13347;50.984;5.822;2022-12-07T11:25:34;15.77;;;14.57;;
24445;SDS011;13347;50.984;5.822;2022-12-07T11:30:46;31.77;;;29.77;;
24445;SDS011;13347;50.984;5.822;2022-12-07T11:33:22;26.63;;;25.13;;
24445;SDS011;13347;50.984;5.822;2022-12-07T11:36:05;28.00;;;26.20;;
24445;SDS011;13347;50.984;5.822;2022-12-07T11:38:47;13.73;;;12.53;;
24445;SDS011;13347;50.984;5.822;2022-12-07T11:41:20;14.45;;;13.20;;
24445;SDS011;13347;50.984;5.822;2022-12-07T11:43:55;19.35;;;17.80;;
24445;SDS011;13347;50.984;5.822;2022-12-07T11:46:25;15.82;;;14.48;;
24445;SDS011;13347;50.984;5.822;2022-12-07T11:49:02;22.08;;;20.70;;
24445;SDS011;13347;50.984;5.822;2022-12-07T11:51:37;31.48;;;29.70;;
24445;SDS011;13347;50.984;5.822;2022-12-07T11:54:11;11.73;;;10.63;;
24445;SDS011;13347;50.984;5.822;2022-12-07T11:56:42;14.38;;;13.18;;
24445;SDS011;13347;50.984;5.822;2022-12-07T11:59:11;28.38;;;26.63;;
24445;SDS011;13347;50.984;5.822;2022-12-07T12:01:46;28.23;;;26.30;;
24445;SDS011;13347;50.984;5.822;2022-12-07T12:07:10;71.25;;;67.65;;
24445;SDS011;13347;50.984;5.822;2022-12-07T12:09:45;17.98;;;16.48;;
24445;SDS011;13347;50.984;5.822;2022-12-07T12:12:24;14.07;;;12.98;;
24445;SDS011;13347;50.984;5.822;2022-12-07T12:15:09;10.98;;;9.88;;
24445;SDS011;13347;50.984;5.822;2022-12-07T12:17:54;12.65;;;11.45;;
24445;SDS011;13347;50.984;5.822;2022-12-07T12:20:51;14.83;;;13.77;;
24445;SDS011;13347;50.984;5.822;2022-12-07T12:23:23;23.13;;;21.63;;
24445;SDS011;13347;50.984;5.822;2022-12-07T12:25:58;12.43;;;11.38;;
24445;SDS011;13347;50.984;5.822;2022-12-07T12:28:28;70.75;;;66.60;;
24445;SDS011;13347;50.984;5.822;2022-12-07T12:31:06;68.63;;;64.53;;
24445;SDS011;13347;50.984;5.822;2022-12-07T12:33:35;17.73;;;16.38;;
24445;SDS011;13347;50.984;5.822;2022-12-07T12:36:18;166.25;;;156.25;;
24445;SDS011;13347;50.984;5.822;2022-12-07T12:39:10;59.50;;;56.17;;
24445;SDS011;13347;50.984;5.822;2022-12-07T12:41:54;94.20;;;87.72;;
24445;SDS011;13347;50.984;5.822;2022-12-07T12:47:51;51.78;;;49.05;;
24445;SDS011;13347;50.984;5.822;2022-12-07T12:50:24;46.42;;;44.08;;
24445;SDS011;13347;50.984;5.822;2022-12-07T12:52:54;58.63;;;55.58;;
24445;SDS011;13347;50.984;5.822;2022-12-07T12:58:44;152.48;;;144.93;;
24445;SDS011;13347;50.984;5.822;2022-12-07T13:04:21;93.10;;;88.20;;
24445;SDS011;13347;50.984;5.822;2022-12-07T13:07:12;78.55;;;74.43;;
24445;SDS011;13347;50.984;5.822;2022-12-07T13:09:59;261.48;;;247.32;;
24445;SDS011;13347;50.984;5.822;2022-12-07T13:12:28;299.40;;;281.33;;
24445;SDS011;13347;50.984;5.822;2022-12-07T13:14:58;88.72;;;84.47;;
24445;SDS011;13347;50.984;5.822;2022-12-07T13:26:12;501.80;;;458.95;;
24445;SDS011;13347;50.984;5.822;2022-12-07T13:28:43;85.07;;;80.90;;
24445;SDS011;13347;50.984;5.822;2022-12-07T13:34:00;576.42;;;534.72;;
24445;SDS011;13347;50.984;5.822;2022-12-07T13:36:29;343.48;;;320.40;;
24445;SDS011;13347;50.984;5.822;2022-12-07T13:39:10;96.18;;;91.13;;
24445;SDS011;13347;50.984;5.822;2022-12-07T13:41:44;112.85;;;107.07;;
24445;SDS011;13347;50.984;5.822;2022-12-07T13:44:15;161.77;;;153.75;;
24445;SDS011;13347;50.984;5.822;2022-12-07T13:46:47;174.45;;;165.50;;
24445;SDS011;13347;50.984;5.822;2022-12-07T13:49:23;141.45;;;134.40;;
24445;SDS011;13347;50.984;5.822;2022-12-07T13:51:52;251.57;;;237.95;;
24445;SDS011;13347;50.984;5.822;2022-12-07T13:54:21;184.38;;;175.35;;
24445;SDS011;13347;50.984;5.822;2022-12-07T13:56:49;202.10;;;192.30;;
24445;SDS011;13347;50.984;5.822;2022-12-07T13:59:18;365.30;;;335.60;;
24445;SDS011;13347;50.984;5.822;2022-12-07T14:01:50;159.27;;;151.63;;
24445;SDS011;13347;50.984;5.822;2022-12-07T14:04:19;178.23;;;168.45;;
24445;SDS011;13347;50.984;5.822;2022-12-07T14:06:56;171.13;;;162.38;;
24445;SDS011;13347;50.984;5.822;2022-12-07T14:09:24;598.33;;;546.10;;
24445;SDS011;13347;50.984;5.822;2022-12-07T14:11:53;149.05;;;141.93;;
24445;SDS011;13347;50.984;5.822;2022-12-07T14:14:22;143.05;;;135.90;;
24445;SDS011;13347;50.984;5.822;2022-12-07T14:17:08;126.85;;;120.50;;
24445;SDS011;13347;50.984;5.822;2022-12-07T14:19:43;154.52;;;145.68;;
24445;SDS011;13347;50.984;5.822;2022-12-07T14:22:20;125.38;;;117.70;;
24445;SDS011;13347;50.984;5.822;2022-12-07T14:27:53;120.97;;;115.05;;
24445;SDS011;13347;50.984;5.822;2022-12-07T14:30:23;29.02;;;27.15;;
24445;SDS011;13347;50.984;5.822;2022-12-07T14:32:55;14.07;;;12.88;;
24445;SDS011;13347;50.984;5.822;2022-12-07T14:35:25;13.35;;;12.35;;
24445;SDS011;13347;50.984;5.822;2022-12-07T14:37:52;34.97;;;32.78;;
24445;SDS011;13347;50.984;5.822;2022-12-07T14:40:21;168.68;;;160.38;;
24445;SDS011;13347;50.984;5.822;2022-12-07T14:42:50;118.40;;;112.70;;
24445;SDS011;13347;50.984;5.822;2022-12-07T14:45:19;265.02;;;250.45;;
24445;SDS011;13347;50.984;5.822;2022-12-07T14:47:48;455.08;;;424.05;;
24445;SDS011;13347;50.984;5.822;2022-12-07T14:50:17;344.33;;;324.10;;
24445;SDS011;13347;50.984;5.822;2022-12-07T14:52:47;264.70;;;249.82;;
24445;SDS011;13347;50.984;5.822;2022-12-07T14:55:18;369.13;;;338.83;;
24445;SDS011;13347;50.984;5.822;2022-12-07T14:57:48;278.40;;;265.05;;
24445;SDS011;13347;50.984;5.822;2022-12-07T15:00:16;429.67;;;402.98;;
24445;SDS011;13347;50.984;5.822;2022-12-07T15:02:44;344.60;;;327.83;;
24445;SDS011;13347;50.984;5.822;2022-12-07T15:05:12;298.30;;;284.40;;
24445;SDS011;13347;50.984;5.822;2022-12-07T15:07:41;419.58;;;395.67;;
24445;SDS011;13347;50.984;5.822;2022-12-07T15:10:13;365.10;;;346.25;;
24445;SDS011;13347;50.984;5.822;2022-12-07T15:15:09;453.17;;;416.38;;